sensor_id;sensor_type;location;lat;lon;timestamp;P1;durP1;ratioP1;P2;durP2;ratioP2
10244;SDS011;5167;52.164;10.530;2024-03-22T00:00:02;17.40;;;8.70;;
10244;SDS011;5167;52.164;10.530;2024-03-22T00:02:28;16.52;;;9.52;;
10244;SDS011;5167;52.164;10.530;2024-03-22T00:04:53;16.48;;;8.60;;
10244;SDS011;5167;52.164;10.530;2024-03-22T00:07:19;14.15;;;8.80;;
10244;SDS011;5167;52.164;10.530;2024-03-22T00:09:44;16.75;;;9.40;;
10244;SDS011;5167;52.164;10.530;2024-03-22T00:12:10;14.73;;;9.70;;
10244;SDS011;5167;52.164;10.530;2024-03-22T00:14:35;15.80;;;10.17;;
10244;SDS011;5167;52.164;10.530;2024-03-22T00:17:01;17.52;;;9.68;;
10244;SDS011;5167;52.164;10.530;2024-03-22T00:19:26;19.10;;;10.30;;
10244;SDS011;5167;52.164;10.530;2024-03-22T00:21:52;15.63;;;8.60;;
10244;SDS011;5167;52.164;10.530;2024-03-22T00:24:17;18.80;;;10.30;;
10244;SDS011;5167;52.164;10.530;2024-03-22T00:26:43;18.50;;;9.57;;
10244;SDS011;5167;52.164;10.530;2024-03-22T00:29:08;20.17;;;11.02;;
10244;SDS011;5167;52.164;10.530;2024-03-22T00:31:34;18.98;;;10.43;;
10244;SDS011;5167;52.164;10.530;2024-03-22T00:33:59;22.52;;;11.48;;
10244;SDS011;5167;52.164;10.530;2024-03-22T00:36:24;22.52;;;12.23;;
10244;SDS011;5167;52.164;10.530;2024-03-22T00:38:50;21.23;;;11.95;;
10244;SDS011;5167;52.164;10.530;2024-03-22T00:41:15;23.25;;;12.27;;
10244;SDS011;5167;52.164;10.530;2024-03-22T00:43:41;26.13;;;13.48;;
10244;SDS011;5167;52.164;10.530;2024-03-22T00:46:06;26.50;;;13.75;;
10244;SDS011;5167;52.164;10.530;2024-03-22T00:48:32;24.98;;;13.95;;
10244;SDS011;5167;52.164;10.530;2024-03-22T00:51:00;26.10;;;13.52;;
10244;SDS011;5167;52.164;10.530;2024-03-22T00:53:25;26.45;;;13.73;;
10244;SDS011;5167;52.164;10.530;2024-03-22T00:55:51;25.08;;;13.60;;
10244;SDS011;5167;52.164;10.530;2024-03-22T00:58:17;28.45;;;14.18;;
10244;SDS011;5167;52.164;10.530;2024-03-22T01:00:43;27.70;;;14.18;;
10244;SDS011;5167;52.164;10.530;2024-03-22T01:03:09;26.97;;;13.87;;
10244;SDS011;5167;52.164;10.530;2024-03-22T01:05:35;29.73;;;14.48;;
10244;SDS011;5167;52.164;10.530;2024-03-22T01:08:01;28.65;;;13.73;;
10244;SDS011;5167;52.164;10.530;2024-03-22T01:10:26;27.05;;;14.23;;
10244;SDS011;5167;52.164;10.530;2024-03-22T01:12:52;32.05;;;16.05;;
10244;SDS011;5167;52.164;10.530;2024-03-22T01:15:17;36.30;;;16.00;;
10244;SDS011;5167;52.164;10.530;2024-03-22T01:17:43;32.92;;;15.55;;
10244;SDS011;5167;52.164;10.530;2024-03-22T01:20:09;31.90;;;15.88;;
10244;SDS011;5167;52.164;10.530;2024-03-22T01:22:35;32.13;;;15.65;;
10244;SDS011;5167;52.164;10.530;2024-03-22T01:25:00;32.97;;;16.92;;
10244;SDS011;5167;52.164;10.530;2024-03-22T01:27:26;34.63;;;16.10;;
10244;SDS011;5167;52.164;10.530;2024-03-22T01:29:51;31.80;;;16.98;;
10244;SDS011;5167;52.164;10.530;2024-03-22T01:32:17;35.88;;;17.92;;
10244;SDS011;5167;52.164;10.530;2024-03-22T01:34:42;37.10;;;17.98;;
10244;SDS011;5167;52.164;10.530;2024-03-22T01:37:08;34.17;;;17.40;;
10244;SDS011;5167;52.164;10.530;2024-03-22T01:39:34;33.80;;;17.50;;
10244;SDS011;5167;52.164;10.530;2024-03-22T01:41:59;34.65;;;16.20;;
10244;SDS011;5167;52.164;10.530;2024-03-22T01:44:28;36.65;;;16.75;;
10244;SDS011;5167;52.164;10.530;2024-03-22T01:46:54;32.80;;;16.55;;
10244;SDS011;5167;52.164;10.530;2024-03-22T01:49:20;33.65;;;15.93;;
10244;SDS011;5167;52.164;10.530;2024-03-22T01:51:46;32.45;;;14.70;;
10244;SDS011;5167;52.164;10.530;2024-03-22T01:54:12;26.85;;;15.18;;
10244;SDS011;5167;52.164;10.530;2024-03-22T01:56:37;28.73;;;16.08;;
10244;SDS011;5167;52.164;10.530;2024-03-22T01:59:04;31.42;;;15.20;;
10244;SDS011;5167;52.164;10.530;2024-03-22T02:01:30;27.33;;;14.68;;
10244;SDS011;5167;52.164;10.530;2024-03-22T02:03:56;30.67;;;15.23;;
10244;SDS011;5167;52.164;10.530;2024-03-22T02:06:21;31.58;;;15.73;;
10244;SDS011;5167;52.164;10.530;2024-03-22T02:08:47;31.50;;;16.15;;
10244;SDS011;5167;52.164;10.530;2024-03-22T02:11:12;30.63;;;15.90;;
10244;SDS011;5167;52.164;10.530;2024-03-22T02:13:38;27.75;;;14.55;;
10244;SDS011;5167;52.164;10.530;2024-03-22T02:16:04;30.10;;;13.90;;
10244;SDS011;5167;52.164;10.530;2024-03-22T02:18:30;32.05;;;15.30;;
10244;SDS011;5167;52.164;10.530;2024-03-22T02:20:56;28.88;;;14.65;;
10244;SDS011;5167;52.164;10.530;2024-03-22T02:23:26;28.85;;;14.52;;
10244;SDS011;5167;52.164;10.530;2024-03-22T02:25:58;34.13;;;14.27;;
10244;SDS011;5167;52.164;10.530;2024-03-22T02:28:24;28.23;;;15.15;;
10244;SDS011;5167;52.164;10.530;2024-03-22T02:30:50;30.50;;;13.93;;
10244;SDS011;5167;52.164;10.530;2024-03-22T02:33:15;27.48;;;14.27;;
10244;SDS011;5167;52.164;10.530;2024-03-22T02:35:41;28.27;;;15.25;;
10244;SDS011;5167;52.164;10.530;2024-03-22T02:38:06;30.52;;;14.10;;
10244;SDS011;5167;52.164;10.530;2024-03-22T02:40:32;31.88;;;15.45;;
10244;SDS011;5167;52.164;10.530;2024-03-22T02:42:57;29.45;;;14.73;;
10244;SDS011;5167;52.164;10.530;2024-03-22T02:45:23;30.15;;;14.65;;
10244;SDS011;5167;52.164;10.530;2024-03-22T02:47:48;34.75;;;15.77;;
10244;SDS011;5167;52.164;10.530;2024-03-22T02:50:13;32.15;;;14.93;;
10244;SDS011;5167;52.164;10.530;2024-03-22T02:52:39;33.35;;;15.02;;
10244;SDS011;5167;52.164;10.530;2024-03-22T02:55:04;33.55;;;16.63;;
10244;SDS011;5167;52.164;10.530;2024-03-22T02:57:30;30.77;;;15.07;;
10244;SDS011;5167;52.164;10.530;2024-03-22T02:59:55;31.95;;;15.77;;
10244;SDS011;5167;52.164;10.530;2024-03-22T03:02:21;31.42;;;15.40;;
10244;SDS011;5167;52.164;10.530;2024-03-22T03:04:46;33.10;;;15.80;;
10244;SDS011;5167;52.164;10.530;2024-03-22T03:07:12;38.60;;;15.82;;
10244;SDS011;5167;52.164;10.530;2024-03-22T03:09:37;30.27;;;15.85;;
10244;SDS011;5167;52.164;10.530;2024-03-22T03:12:03;29.75;;;15.60;;
10244;SDS011;5167;52.164;10.530;2024-03-22T03:14:28;32.67;;;16.73;;
10244;SDS011;5167;52.164;10.530;2024-03-22T03:16:54;32.50;;;15.30;;
10244;SDS011;5167;52.164;10.530;2024-03-22T03:19:20;30.98;;;15.80;;
10244;SDS011;5167;52.164;10.530;2024-03-22T03:21:46;31.30;;;14.63;;
10244;SDS011;5167;52.164;10.530;2024-03-22T03:24:11;34.92;;;16.02;;
10244;SDS011;5167;52.164;10.530;2024-03-22T03:26:37;27.77;;;15.27;;
10244;SDS011;5167;52.164;10.530;2024-03-22T03:29:02;31.15;;;15.60;;
10244;SDS011;5167;52.164;10.530;2024-03-22T03:31:28;30.02;;;15.70;;
10244;SDS011;5167;52.164;10.530;2024-03-22T03:33:53;32.90;;;16.02;;
10244;SDS011;5167;52.164;10.530;2024-03-22T03:36:18;34.30;;;15.63;;
10244;SDS011;5167;52.164;10.530;2024-03-22T03:38:44;36.00;;;16.45;;
10244;SDS011;5167;52.164;10.530;2024-03-22T03:41:10;27.30;;;15.25;;
10244;SDS011;5167;52.164;10.530;2024-03-22T03:43:35;31.02;;;15.82;;
10244;SDS011;5167;52.164;10.530;2024-03-22T03:46:00;30.25;;;14.57;;
10244;SDS011;5167;52.164;10.530;2024-03-22T03:48:26;25.50;;;14.32;;
10244;SDS011;5167;52.164;10.530;2024-03-22T03:50:52;36.92;;;16.00;;
10244;SDS011;5167;52.164;10.530;2024-03-22T03:53:19;33.55;;;15.75;;
10244;SDS011;5167;52.164;10.530;2024-03-22T03:55:45;31.02;;;14.52;;
10244;SDS011;5167;52.164;10.530;2024-03-22T03:58:11;33.45;;;15.52;;
10244;SDS011;5167;52.164;10.530;2024-03-22T04:00:36;27.42;;;14.40;;
10244;SDS011;5167;52.164;10.530;2024-03-22T04:03:02;29.90;;;14.50;;
10244;SDS011;5167;52.164;10.530;2024-03-22T04:05:27;29.02;;;14.15;;
10244;SDS011;5167;52.164;10.530;2024-03-22T04:07:53;29.52;;;14.50;;
10244;SDS011;5167;52.164;10.530;2024-03-22T04:10:19;31.70;;;15.93;;
10244;SDS011;5167;52.164;10.530;2024-03-22T04:12:44;31.23;;;14.90;;
10244;SDS011;5167;52.164;10.530;2024-03-22T04:15:10;29.95;;;15.55;;
10244;SDS011;5167;52.164;10.530;2024-03-22T04:17:35;29.77;;;15.52;;
10244;SDS011;5167;52.164;10.530;2024-03-22T04:20:01;30.33;;;15.02;;
10244;SDS011;5167;52.164;10.530;2024-03-22T04:22:29;30.83;;;13.80;;
10244;SDS011;5167;52.164;10.530;2024-03-22T04:24:54;33.30;;;15.52;;
10244;SDS011;5167;52.164;10.530;2024-03-22T04:27:20;27.45;;;14.07;;
10244;SDS011;5167;52.164;10.530;2024-03-22T04:29:48;28.40;;;14.23;;
10244;SDS011;5167;52.164;10.530;2024-03-22T04:32:14;30.13;;;15.38;;
10244;SDS011;5167;52.164;10.530;2024-03-22T04:34:42;34.05;;;15.02;;
10244;SDS011;5167;52.164;10.530;2024-03-22T04:37:08;33.53;;;14.67;;
10244;SDS011;5167;52.164;10.530;2024-03-22T04:39:34;28.80;;;12.80;;
10244;SDS011;5167;52.164;10.530;2024-03-22T04:42:00;29.23;;;14.68;;
10244;SDS011;5167;52.164;10.530;2024-03-22T04:44:25;30.45;;;14.90;;
10244;SDS011;5167;52.164;10.530;2024-03-22T04:46:51;29.45;;;15.20;;
10244;SDS011;5167;52.164;10.530;2024-03-22T04:49:16;27.25;;;13.60;;
10244;SDS011;5167;52.164;10.530;2024-03-22T04:51:42;27.42;;;14.35;;
10244;SDS011;5167;52.164;10.530;2024-03-22T04:54:07;29.17;;;13.85;;
10244;SDS011;5167;52.164;10.530;2024-03-22T04:56:32;29.95;;;13.65;;
10244;SDS011;5167;52.164;10.530;2024-03-22T04:58:58;27.15;;;13.45;;
10244;SDS011;5167;52.164;10.530;2024-03-22T05:01:23;28.95;;;12.68;;
10244;SDS011;5167;52.164;10.530;2024-03-22T05:03:49;29.40;;;13.63;;
10244;SDS011;5167;52.164;10.530;2024-03-22T05:06:15;28.75;;;14.23;;
10244;SDS011;5167;52.164;10.530;2024-03-22T05:08:40;29.25;;;15.23;;
10244;SDS011;5167;52.164;10.530;2024-03-22T05:11:06;30.88;;;14.77;;
10244;SDS011;5167;52.164;10.530;2024-03-22T05:13:32;26.48;;;13.05;;
10244;SDS011;5167;52.164;10.530;2024-03-22T05:15:58;26.60;;;13.20;;
10244;SDS011;5167;52.164;10.530;2024-03-22T05:18:23;29.48;;;12.98;;
10244;SDS011;5167;52.164;10.530;2024-03-22T05:20:49;29.02;;;13.07;;
10244;SDS011;5167;52.164;10.530;2024-03-22T05:23:15;27.70;;;13.52;;
10244;SDS011;5167;52.164;10.530;2024-03-22T05:25:43;27.80;;;13.77;;
10244;SDS011;5167;52.164;10.530;2024-03-22T05:28:08;29.23;;;13.73;;
10244;SDS011;5167;52.164;10.530;2024-03-22T05:30:34;28.08;;;12.57;;
10244;SDS011;5167;52.164;10.530;2024-03-22T05:33:00;33.00;;;14.50;;
10244;SDS011;5167;52.164;10.530;2024-03-22T05:35:26;29.83;;;13.77;;
10244;SDS011;5167;52.164;10.530;2024-03-22T05:37:52;28.42;;;13.57;;
10244;SDS011;5167;52.164;10.530;2024-03-22T05:40:17;29.45;;;14.32;;
10244;SDS011;5167;52.164;10.530;2024-03-22T05:42:43;26.05;;;13.18;;
10244;SDS011;5167;52.164;10.530;2024-03-22T05:45:09;33.17;;;14.85;;
10244;SDS011;5167;52.164;10.530;2024-03-22T05:47:34;30.13;;;13.13;;
10244;SDS011;5167;52.164;10.530;2024-03-22T05:50:00;26.73;;;13.85;;
10244;SDS011;5167;52.164;10.530;2024-03-22T05:52:26;30.02;;;14.25;;
10244;SDS011;5167;52.164;10.530;2024-03-22T05:54:52;29.25;;;13.80;;
10244;SDS011;5167;52.164;10.530;2024-03-22T05:57:17;30.00;;;15.02;;
10244;SDS011;5167;52.164;10.530;2024-03-22T05:59:43;29.48;;;14.32;;
10244;SDS011;5167;52.164;10.530;2024-03-22T06:02:08;32.80;;;15.20;;
10244;SDS011;5167;52.164;10.530;2024-03-22T06:04:34;33.88;;;15.38;;
10244;SDS011;5167;52.164;10.530;2024-03-22T06:07:00;32.53;;;14.48;;
10244;SDS011;5167;52.164;10.530;2024-03-22T06:09:28;31.17;;;14.65;;
10244;SDS011;5167;52.164;10.530;2024-03-22T06:12:03;33.25;;;14.43;;
10244;SDS011;5167;52.164;10.530;2024-03-22T06:14:29;38.10;;;15.02;;
10244;SDS011;5167;52.164;10.530;2024-03-22T06:16:55;31.55;;;15.95;;
10244;SDS011;5167;52.164;10.530;2024-03-22T06:19:20;34.20;;;16.15;;
10244;SDS011;5167;52.164;10.530;2024-03-22T06:21:46;34.38;;;14.93;;
10244;SDS011;5167;52.164;10.530;2024-03-22T06:24:11;33.55;;;15.18;;
10244;SDS011;5167;52.164;10.530;2024-03-22T06:26:37;31.23;;;14.57;;
10244;SDS011;5167;52.164;10.530;2024-03-22T06:29:02;37.40;;;17.92;;
10244;SDS011;5167;52.164;10.530;2024-03-22T06:31:28;36.67;;;17.35;;
10244;SDS011;5167;52.164;10.530;2024-03-22T06:33:53;32.15;;;16.17;;
10244;SDS011;5167;52.164;10.530;2024-03-22T06:36:19;27.98;;;14.77;;
10244;SDS011;5167;52.164;10.530;2024-03-22T06:38:45;33.10;;;13.60;;
10244;SDS011;5167;52.164;10.530;2024-03-22T06:41:10;32.38;;;14.63;;
10244;SDS011;5167;52.164;10.530;2024-03-22T06:43:35;36.17;;;15.60;;
10244;SDS011;5167;52.164;10.530;2024-03-22T06:46:01;31.67;;;15.20;;
10244;SDS011;5167;52.164;10.530;2024-03-22T06:48:27;31.00;;;14.65;;
10244;SDS011;5167;52.164;10.530;2024-03-22T06:50:52;29.95;;;14.13;;
10244;SDS011;5167;52.164;10.530;2024-03-22T06:53:18;35.80;;;14.25;;
10244;SDS011;5167;52.164;10.530;2024-03-22T06:55:43;34.30;;;14.98;;
10244;SDS011;5167;52.164;10.530;2024-03-22T06:58:09;26.08;;;12.90;;
10244;SDS011;5167;52.164;10.530;2024-03-22T07:00:35;32.88;;;14.20;;
10244;SDS011;5167;52.164;10.530;2024-03-22T07:03:01;30.98;;;13.80;;
10244;SDS011;5167;52.164;10.530;2024-03-22T07:05:27;27.25;;;13.65;;
10244;SDS011;5167;52.164;10.530;2024-03-22T07:07:53;29.30;;;14.18;;
10244;SDS011;5167;52.164;10.530;2024-03-22T07:10:21;28.73;;;13.40;;
10244;SDS011;5167;52.164;10.530;2024-03-22T07:12:48;28.98;;;13.43;;
10244;SDS011;5167;52.164;10.530;2024-03-22T07:15:13;29.48;;;13.85;;
10244;SDS011;5167;52.164;10.530;2024-03-22T07:17:39;27.48;;;13.20;;
10244;SDS011;5167;52.164;10.530;2024-03-22T07:20:04;28.75;;;13.68;;
10244;SDS011;5167;52.164;10.530;2024-03-22T07:22:31;31.15;;;12.93;;
10244;SDS011;5167;52.164;10.530;2024-03-22T07:24:56;28.95;;;13.75;;
10244;SDS011;5167;52.164;10.530;2024-03-22T07:27:22;26.73;;;12.65;;
10244;SDS011;5167;52.164;10.530;2024-03-22T07:29:47;28.15;;;13.18;;
10244;SDS011;5167;52.164;10.530;2024-03-22T07:32:13;29.02;;;13.13;;
10244;SDS011;5167;52.164;10.530;2024-03-22T07:34:38;33.05;;;15.40;;
10244;SDS011;5167;52.164;10.530;2024-03-22T07:37:04;31.08;;;13.68;;
10244;SDS011;5167;52.164;10.530;2024-03-22T07:39:30;28.95;;;13.70;;
10244;SDS011;5167;52.164;10.530;2024-03-22T07:41:55;27.77;;;13.00;;
10244;SDS011;5167;52.164;10.530;2024-03-22T07:44:21;28.35;;;12.40;;
10244;SDS011;5167;52.164;10.530;2024-03-22T07:46:49;26.30;;;12.93;;
10244;SDS011;5167;52.164;10.530;2024-03-22T07:49:14;30.70;;;13.25;;
10244;SDS011;5167;52.164;10.530;2024-03-22T07:51:40;28.45;;;13.63;;
10244;SDS011;5167;52.164;10.530;2024-03-22T07:54:05;24.65;;;12.10;;
10244;SDS011;5167;52.164;10.530;2024-03-22T07:56:31;27.77;;;12.27;;
10244;SDS011;5167;52.164;10.530;2024-03-22T07:58:56;27.77;;;11.35;;
10244;SDS011;5167;52.164;10.530;2024-03-22T08:01:22;28.85;;;11.98;;
10244;SDS011;5167;52.164;10.530;2024-03-22T08:03:48;31.48;;;14.98;;
10244;SDS011;5167;52.164;10.530;2024-03-22T08:06:14;30.23;;;13.77;;
10244;SDS011;5167;52.164;10.530;2024-03-22T08:08:40;28.35;;;12.90;;
10244;SDS011;5167;52.164;10.530;2024-03-22T08:11:05;27.23;;;12.88;;
10244;SDS011;5167;52.164;10.530;2024-03-22T08:13:31;26.42;;;12.43;;
10244;SDS011;5167;52.164;10.530;2024-03-22T08:15:56;27.08;;;12.73;;
10244;SDS011;5167;52.164;10.530;2024-03-22T08:18:22;25.20;;;12.00;;
10244;SDS011;5167;52.164;10.530;2024-03-22T08:20:47;25.38;;;11.55;;
10244;SDS011;5167;52.164;10.530;2024-03-22T08:23:13;29.77;;;14.30;;
10244;SDS011;5167;52.164;10.530;2024-03-22T08:25:38;50.88;;;23.20;;
10244;SDS011;5167;52.164;10.530;2024-03-22T08:28:04;26.02;;;12.45;;
10244;SDS011;5167;52.164;10.530;2024-03-22T08:30:29;26.70;;;12.07;;
10244;SDS011;5167;52.164;10.530;2024-03-22T08:32:55;24.48;;;11.55;;
10244;SDS011;5167;52.164;10.530;2024-03-22T08:35:20;28.55;;;12.30;;
10244;SDS011;5167;52.164;10.530;2024-03-22T08:37:46;28.55;;;12.63;;
10244;SDS011;5167;52.164;10.530;2024-03-22T08:40:11;24.60;;;11.40;;
10244;SDS011;5167;52.164;10.530;2024-03-22T08:42:38;24.08;;;11.70;;
10244;SDS011;5167;52.164;10.530;2024-03-22T08:45:04;26.55;;;12.68;;
10244;SDS011;5167;52.164;10.530;2024-03-22T08:47:30;26.27;;;11.68;;
10244;SDS011;5167;52.164;10.530;2024-03-22T08:49:58;28.42;;;11.65;;
10244;SDS011;5167;52.164;10.530;2024-03-22T08:52:24;27.40;;;12.52;;
10244;SDS011;5167;52.164;10.530;2024-03-22T08:54:53;25.65;;;11.35;;
10244;SDS011;5167;52.164;10.530;2024-03-22T08:57:19;25.85;;;11.20;;
10244;SDS011;5167;52.164;10.530;2024-03-22T08:59:44;26.15;;;12.63;;
10244;SDS011;5167;52.164;10.530;2024-03-22T09:02:10;23.08;;;11.23;;
10244;SDS011;5167;52.164;10.530;2024-03-22T09:04:36;23.95;;;11.82;;
10244;SDS011;5167;52.164;10.530;2024-03-22T09:07:02;22.88;;;10.90;;
10244;SDS011;5167;52.164;10.530;2024-03-22T09:09:28;24.25;;;10.70;;
10244;SDS011;5167;52.164;10.530;2024-03-22T09:11:53;22.00;;;10.75;;
10244;SDS011;5167;52.164;10.530;2024-03-22T09:14:19;27.67;;;12.20;;
10244;SDS011;5167;52.164;10.530;2024-03-22T09:16:45;22.17;;;10.82;;
10244;SDS011;5167;52.164;10.530;2024-03-22T09:19:10;27.67;;;11.48;;
10244;SDS011;5167;52.164;10.530;2024-03-22T09:21:36;29.30;;;12.10;;
10244;SDS011;5167;52.164;10.530;2024-03-22T09:24:02;23.23;;;11.18;;
10244;SDS011;5167;52.164;10.530;2024-03-22T09:26:31;24.83;;;11.98;;
10244;SDS011;5167;52.164;10.530;2024-03-22T09:28:58;25.00;;;12.02;;
10244;SDS011;5167;52.164;10.530;2024-03-22T09:31:23;26.95;;;12.23;;
10244;SDS011;5167;52.164;10.530;2024-03-22T09:33:49;30.70;;;12.13;;
10244;SDS011;5167;52.164;10.530;2024-03-22T09:36:14;40.00;;;12.20;;
10244;SDS011;5167;52.164;10.530;2024-03-22T09:38:40;30.77;;;11.88;;
10244;SDS011;5167;52.164;10.530;2024-03-22T09:41:06;23.50;;;11.30;;
10244;SDS011;5167;52.164;10.530;2024-03-22T09:43:32;35.90;;;12.48;;
10244;SDS011;5167;52.164;10.530;2024-03-22T09:45:59;25.30;;;12.07;;
10244;SDS011;5167;52.164;10.530;2024-03-22T09:48:25;24.33;;;11.98;;
10244;SDS011;5167;52.164;10.530;2024-03-22T09:50:51;26.48;;;12.25;;
10244;SDS011;5167;52.164;10.530;2024-03-22T09:53:18;26.48;;;12.38;;
10244;SDS011;5167;52.164;10.530;2024-03-22T09:55:46;31.17;;;11.85;;
10244;SDS011;5167;52.164;10.530;2024-03-22T09:58:13;27.17;;;13.60;;
10244;SDS011;5167;52.164;10.530;2024-03-22T10:00:38;24.45;;;11.98;;
10244;SDS011;5167;52.164;10.530;2024-03-22T10:03:04;27.98;;;11.80;;
10244;SDS011;5167;52.164;10.530;2024-03-22T10:05:30;26.02;;;12.40;;
10244;SDS011;5167;52.164;10.530;2024-03-22T10:07:56;25.92;;;12.32;;
10244;SDS011;5167;52.164;10.530;2024-03-22T10:10:22;26.85;;;12.15;;
10244;SDS011;5167;52.164;10.530;2024-03-22T10:12:48;24.83;;;11.45;;
10244;SDS011;5167;52.164;10.530;2024-03-22T10:15:13;25.98;;;10.88;;
10244;SDS011;5167;52.164;10.530;2024-03-22T10:17:39;21.55;;;11.63;;
10244;SDS011;5167;52.164;10.530;2024-03-22T10:20:05;26.58;;;12.15;;
10244;SDS011;5167;52.164;10.530;2024-03-22T10:22:43;25.10;;;10.88;;
10244;SDS011;5167;52.164;10.530;2024-03-22T10:25:23;28.05;;;12.30;;
10244;SDS011;5167;52.164;10.530;2024-03-22T10:27:49;24.95;;;11.68;;
10244;SDS011;5167;52.164;10.530;2024-03-22T10:30:15;23.83;;;11.50;;
10244;SDS011;5167;52.164;10.530;2024-03-22T10:32:42;25.17;;;10.35;;
10244;SDS011;5167;52.164;10.530;2024-03-22T10:35:11;26.95;;;11.82;;
10244;SDS011;5167;52.164;10.530;2024-03-22T10:37:38;23.42;;;11.73;;
10244;SDS011;5167;52.164;10.530;2024-03-22T10:40:04;21.42;;;10.77;;
10244;SDS011;5167;52.164;10.530;2024-03-22T10:42:34;19.08;;;9.77;;
10244;SDS011;5167;52.164;10.530;2024-03-22T10:45:01;23.23;;;11.23;;
10244;SDS011;5167;52.164;10.530;2024-03-22T10:47:29;23.23;;;11.27;;
10244;SDS011;5167;52.164;10.530;2024-03-22T10:49:58;17.33;;;9.55;;
10244;SDS011;5167;52.164;10.530;2024-03-22T10:52:52;26.95;;;12.27;;
10244;SDS011;5167;52.164;10.530;2024-03-22T10:55:24;21.20;;;10.32;;
10244;SDS011;5167;52.164;10.530;2024-03-22T10:57:57;27.65;;;12.13;;
10244;SDS011;5167;52.164;10.530;2024-03-22T11:00:33;23.20;;;11.10;;
10244;SDS011;5167;52.164;10.530;2024-03-22T11:03:02;22.10;;;11.40;;
10244;SDS011;5167;52.164;10.530;2024-03-22T11:05:27;20.80;;;10.55;;
10244;SDS011;5167;52.164;10.530;2024-03-22T11:08:03;20.27;;;9.57;;
10244;SDS011;5167;52.164;10.530;2024-03-22T11:10:30;17.02;;;9.80;;
10244;SDS011;5167;52.164;10.530;2024-03-22T11:13:00;17.98;;;9.07;;
10244;SDS011;5167;52.164;10.530;2024-03-22T11:15:28;21.10;;;9.63;;
10244;SDS011;5167;52.164;10.530;2024-03-22T11:17:54;22.15;;;10.02;;
10244;SDS011;5167;52.164;10.530;2024-03-22T11:20:19;20.38;;;10.45;;
10244;SDS011;5167;52.164;10.530;2024-03-22T11:22:45;24.23;;;9.77;;
10244;SDS011;5167;52.164;10.530;2024-03-22T11:25:10;19.88;;;10.48;;
10244;SDS011;5167;52.164;10.530;2024-03-22T11:27:36;20.90;;;10.35;;
10244;SDS011;5167;52.164;10.530;2024-03-22T11:30:01;19.13;;;10.38;;
10244;SDS011;5167;52.164;10.530;2024-03-22T11:32:28;21.45;;;11.13;;
10244;SDS011;5167;52.164;10.530;2024-03-22T11:34:54;19.58;;;10.38;;
10244;SDS011;5167;52.164;10.530;2024-03-22T11:37:19;18.08;;;9.77;;
10244;SDS011;5167;52.164;10.530;2024-03-22T11:39:45;22.67;;;10.32;;
10244;SDS011;5167;52.164;10.530;2024-03-22T11:42:10;18.75;;;9.98;;
10244;SDS011;5167;52.164;10.530;2024-03-22T11:44:37;19.88;;;10.40;;
10244;SDS011;5167;52.164;10.530;2024-03-22T11:47:04;20.25;;;9.38;;
10244;SDS011;5167;52.164;10.530;2024-03-22T11:49:30;17.70;;;9.60;;
10244;SDS011;5167;52.164;10.530;2024-03-22T11:51:55;17.10;;;9.02;;
10244;SDS011;5167;52.164;10.530;2024-03-22T11:54:22;20.48;;;9.48;;
10244;SDS011;5167;52.164;10.530;2024-03-22T11:56:48;16.50;;;8.10;;
10244;SDS011;5167;52.164;10.530;2024-03-22T11:59:14;16.23;;;8.43;;
10244;SDS011;5167;52.164;10.530;2024-03-22T12:01:42;25.23;;;9.27;;
10244;SDS011;5167;52.164;10.530;2024-03-22T12:04:08;18.60;;;9.23;;
10244;SDS011;5167;52.164;10.530;2024-03-22T12:06:40;18.02;;;9.20;;
10244;SDS011;5167;52.164;10.530;2024-03-22T12:09:07;17.00;;;7.97;;
10244;SDS011;5167;52.164;10.530;2024-03-22T12:11:33;16.67;;;9.57;;
10244;SDS011;5167;52.164;10.530;2024-03-22T12:13:59;12.95;;;7.30;;
10244;SDS011;5167;52.164;10.530;2024-03-22T12:16:24;18.02;;;7.45;;
10244;SDS011;5167;52.164;10.530;2024-03-22T12:18:50;13.13;;;7.03;;
10244;SDS011;5167;52.164;10.530;2024-03-22T12:21:15;12.75;;;6.75;;
10244;SDS011;5167;52.164;10.530;2024-03-22T12:23:40;12.38;;;6.50;;
10244;SDS011;5167;52.164;10.530;2024-03-22T12:26:06;10.57;;;7.10;;
10244;SDS011;5167;52.164;10.530;2024-03-22T12:28:32;11.45;;;6.30;;
10244;SDS011;5167;52.164;10.530;2024-03-22T12:30:57;13.20;;;5.72;;
10244;SDS011;5167;52.164;10.530;2024-03-22T12:33:23;11.43;;;5.70;;
10244;SDS011;5167;52.164;10.530;2024-03-22T12:35:48;10.10;;;5.18;;
10244;SDS011;5167;52.164;10.530;2024-03-22T12:38:14;9.00;;;5.75;;
10244;SDS011;5167;52.164;10.530;2024-03-22T12:40:40;10.70;;;5.20;;
10244;SDS011;5167;52.164;10.530;2024-03-22T12:43:06;9.90;;;5.53;;
10244;SDS011;5167;52.164;10.530;2024-03-22T12:45:34;11.48;;;5.75;;
10244;SDS011;5167;52.164;10.530;2024-03-22T12:47:59;10.95;;;5.75;;
10244;SDS011;5167;52.164;10.530;2024-03-22T12:50:25;9.70;;;5.80;;
10244;SDS011;5167;52.164;10.530;2024-03-22T12:52:52;8.10;;;5.07;;
10244;SDS011;5167;52.164;10.530;2024-03-22T12:55:17;13.77;;;7.18;;
10244;SDS011;5167;52.164;10.530;2024-03-22T12:57:43;12.55;;;6.53;;
10244;SDS011;5167;52.164;10.530;2024-03-22T13:00:08;12.05;;;5.78;;
10244;SDS011;5167;52.164;10.530;2024-03-22T13:02:43;11.38;;;5.55;;
10244;SDS011;5167;52.164;10.530;2024-03-22T13:05:10;12.18;;;6.40;;
10244;SDS011;5167;52.164;10.530;2024-03-22T13:07:35;19.55;;;5.70;;
10244;SDS011;5167;52.164;10.530;2024-03-22T13:10:01;16.70;;;5.68;;
10244;SDS011;5167;52.164;10.530;2024-03-22T13:12:27;11.38;;;6.05;;
10244;SDS011;5167;52.164;10.530;2024-03-22T13:14:54;10.18;;;5.07;;
10244;SDS011;5167;52.164;10.530;2024-03-22T13:17:19;8.80;;;5.00;;
10244;SDS011;5167;52.164;10.530;2024-03-22T13:19:45;11.70;;;6.07;;
10244;SDS011;5167;52.164;10.530;2024-03-22T13:22:11;9.77;;;5.80;;
10244;SDS011;5167;52.164;10.530;2024-03-22T13:24:37;10.35;;;6.32;;
10244;SDS011;5167;52.164;10.530;2024-03-22T13:27:03;12.82;;;5.97;;
10244;SDS011;5167;52.164;10.530;2024-03-22T13:29:28;15.32;;;8.07;;
10244;SDS011;5167;52.164;10.530;2024-03-22T13:31:54;10.48;;;6.35;;
10244;SDS011;5167;52.164;10.530;2024-03-22T13:34:20;13.68;;;7.07;;
10244;SDS011;5167;52.164;10.530;2024-03-22T13:36:45;12.95;;;6.68;;
10244;SDS011;5167;52.164;10.530;2024-03-22T13:39:11;13.60;;;6.97;;
10244;SDS011;5167;52.164;10.530;2024-03-22T13:41:40;12.27;;;6.25;;
10244;SDS011;5167;52.164;10.530;2024-03-22T13:44:06;11.35;;;6.80;;
10244;SDS011;5167;52.164;10.530;2024-03-22T13:46:33;14.05;;;7.30;;
10244;SDS011;5167;52.164;10.530;2024-03-22T13:49:01;10.98;;;7.50;;
10244;SDS011;5167;52.164;10.530;2024-03-22T13:51:28;12.57;;;7.55;;
10244;SDS011;5167;52.164;10.530;2024-03-22T13:53:54;10.07;;;7.25;;
10244;SDS011;5167;52.164;10.530;2024-03-22T13:56:20;13.45;;;7.32;;
10244;SDS011;5167;52.164;10.530;2024-03-22T13:58:46;18.63;;;7.65;;
10244;SDS011;5167;52.164;10.530;2024-03-22T14:01:11;12.30;;;7.80;;
10244;SDS011;5167;52.164;10.530;2024-03-22T14:03:37;12.98;;;7.75;;
10244;SDS011;5167;52.164;10.530;2024-03-22T14:06:02;13.43;;;8.65;;
10244;SDS011;5167;52.164;10.530;2024-03-22T14:08:28;14.32;;;9.05;;
10244;SDS011;5167;52.164;10.530;2024-03-22T14:10:54;16.33;;;9.25;;
10244;SDS011;5167;52.164;10.530;2024-03-22T14:13:19;16.80;;;11.48;;
10244;SDS011;5167;52.164;10.530;2024-03-22T14:15:45;15.25;;;9.15;;